HVN175 VVDN-VVTS
Flight info
| Callsign | HVN175 |
|---|---|
| Flight time | 1h 3m |
| Altitude | 36000 |
| Route | SADIN1G SADIN Q1 DOVIN DOVIN5D |
| Aircraft | A21N/M-SDE2E3FGHIRWXY/LB1 |
Departure
| Time | 2026-04-21 14:37 |
|---|---|
| Airport | Da Nang International Airport (VVDN) |
Arrival
| Time | 2026-04-21 15:40 |
|---|---|
| Airport | Tan Son Nhat International Airport (VVTS) |
| Time | Latitude | Longitude | Altitude | Speed | Heading |
|---|---|---|---|---|---|
| 2026-04-21 14:12 | 16.05410 | 108.20163 | 42 ft | 0 kts | 82° |
| 2026-04-21 14:25 | 16.05410 | 108.20161 | 42 ft | 2 kts | 82° |
| 2026-04-21 14:25 | 16.05408 | 108.20145 | 42 ft | 2 kts | 82° |
| 2026-04-21 14:26 | 16.05405 | 108.20129 | 42 ft | 2 kts | 82° |
| 2026-04-21 14:26 | 16.05403 | 108.20114 | 42 ft | 2 kts | 82° |
| 2026-04-21 14:26 | 16.05401 | 108.20098 | 42 ft | 2 kts | 82° |
| 2026-04-21 14:26 | 16.05399 | 108.20083 | 42 ft | 2 kts | 82° |
| 2026-04-21 14:27 | 16.05397 | 108.20068 | 42 ft | 2 kts | 82° |
| 2026-04-21 14:27 | 16.05395 | 108.20052 | 42 ft | 2 kts | 81° |
| 2026-04-21 14:27 | 16.05395 | 108.20042 | 42 ft | 2 kts | 116° |
| 2026-04-21 14:27 | 16.05408 | 108.20029 | 42 ft | 1 kts | 166° |
| 2026-04-21 14:28 | 16.05415 | 108.20029 | 42 ft | 1 kts | 174° |
| 2026-04-21 14:28 | 16.05417 | 108.20029 | 42 ft | 0 kts | 172° |
| 2026-04-21 14:30 | 16.05408 | 108.20030 | 42 ft | 1 kts | 172° |
| 2026-04-21 14:30 | 16.05380 | 108.20034 | 42 ft | 12 kts | 172° |
| 2026-04-21 14:31 | 16.05284 | 108.20049 | 42 ft | 13 kts | 172° |
| 2026-04-21 14:31 | 16.05191 | 108.20061 | 42 ft | 13 kts | 172° |
| 2026-04-21 14:31 | 16.05042 | 108.20083 | 42 ft | 26 kts | 172° |
| 2026-04-21 14:31 | 16.04866 | 108.20108 | 42 ft | 24 kts | 172° |
| 2026-04-21 14:32 | 16.04703 | 108.20132 | 42 ft | 22 kts | 171° |
| 2026-04-21 14:32 | 16.04550 | 108.20154 | 42 ft | 21 kts | 172° |
| 2026-04-21 14:32 | 16.04408 | 108.20174 | 42 ft | 20 kts | 172° |
| 2026-04-21 14:32 | 16.04274 | 108.20194 | 42 ft | 18 kts | 172° |
| 2026-04-21 14:33 | 16.04148 | 108.20213 | 42 ft | 17 kts | 172° |
| 2026-04-21 14:33 | 16.04027 | 108.20230 | 42 ft | 17 kts | 172° |
| 2026-04-21 14:33 | 16.03912 | 108.20248 | 42 ft | 16 kts | 172° |
| 2026-04-21 14:33 | 16.03801 | 108.20264 | 42 ft | 15 kts | 172° |
| 2026-04-21 14:34 | 16.03695 | 108.20280 | 42 ft | 15 kts | 172° |
| 2026-04-21 14:34 | 16.03593 | 108.20294 | 42 ft | 14 kts | 172° |
| 2026-04-21 14:34 | 16.03492 | 108.20309 | 42 ft | 14 kts | 172° |
| 2026-04-21 14:34 | 16.03396 | 108.20322 | 42 ft | 13 kts | 172° |
| 2026-04-21 14:35 | 16.03301 | 108.20336 | 42 ft | 13 kts | 172° |
| 2026-04-21 14:35 | 16.03208 | 108.20350 | 42 ft | 13 kts | 172° |
| 2026-04-21 14:35 | 16.03116 | 108.20363 | 42 ft | 13 kts | 172° |
| 2026-04-21 14:35 | 16.03027 | 108.20376 | 42 ft | 12 kts | 175° |
| 2026-04-21 14:36 | 16.02949 | 108.20358 | 42 ft | 9 kts | 218° |
| 2026-04-21 14:36 | 16.02922 | 108.20299 | 42 ft | 9 kts | 259° |
| 2026-04-21 14:36 | 16.02945 | 108.20245 | 42 ft | 9 kts | 346° |
| 2026-04-21 14:36 | 16.03067 | 108.20229 | 42 ft | 45 kts | 353° |
| 2026-04-21 14:37 | 16.03649 | 108.20147 | 42 ft | 122 kts | 353° |
| 2026-04-21 14:37 | 16.04696 | 108.19999 | 157 ft | 169 kts | 353° |
| 2026-04-21 14:37 | 16.05878 | 108.19829 | 750 ft | 177 kts | 353° |
| 2026-04-21 14:37 | 16.07076 | 108.19743 | 1468 ft | 171 kts | 0° |
| 2026-04-21 14:38 | 16.08259 | 108.19709 | 1888 ft | 176 kts | 1° |
| 2026-04-21 14:38 | 16.09543 | 108.19692 | 2171 ft | 190 kts | 2° |
| 2026-04-21 14:38 | 16.10906 | 108.19668 | 2455 ft | 204 kts | 1° |
| 2026-04-21 14:38 | 16.12380 | 108.19634 | 2742 ft | 218 kts | 1° |
| 2026-04-21 14:39 | 16.13948 | 108.19597 | 3001 ft | 235 kts | 4° |
| 2026-04-21 14:39 | 16.15584 | 108.19976 | 3212 ft | 252 kts | 31° |
| 2026-04-21 14:39 | 16.16900 | 108.21178 | 3647 ft | 258 kts | 60° |
| 2026-04-21 14:39 | 16.17505 | 108.22923 | 4287 ft | 258 kts | 86° |
| 2026-04-21 14:40 | 16.17551 | 108.24785 | 5075 ft | 257 kts | 91° |
| 2026-04-21 14:40 | 16.17557 | 108.26666 | 5823 ft | 258 kts | 91° |
| 2026-04-21 14:40 | 16.17568 | 108.28521 | 6555 ft | 259 kts | 90° |
| 2026-04-21 14:40 | 16.17585 | 108.30387 | 7285 ft | 260 kts | 90° |
| 2026-04-21 14:41 | 16.17605 | 108.32277 | 8009 ft | 261 kts | 90° |
| 2026-04-21 14:41 | 16.17623 | 108.34154 | 8709 ft | 261 kts | 92° |
| 2026-04-21 14:41 | 16.17269 | 108.35980 | 9356 ft | 264 kts | 112° |
| 2026-04-21 14:41 | 16.16202 | 108.37543 | 10008 ft | 271 kts | 134° |
| 2026-04-21 14:42 | 16.14551 | 108.38584 | 10465 ft | 289 kts | 156° |
| 2026-04-21 14:42 | 16.12482 | 108.38893 | 10734 ft | 314 kts | 172° |
| 2026-04-21 14:42 | 16.10243 | 108.38927 | 11001 ft | 329 kts | 173° |
| 2026-04-21 14:42 | 16.07897 | 108.38938 | 11258 ft | 343 kts | 173° |
| 2026-04-21 14:43 | 16.05495 | 108.38955 | 11631 ft | 353 kts | 173° |
| 2026-04-21 14:43 | 16.03021 | 108.38975 | 12192 ft | 356 kts | 173° |
| 2026-04-21 14:43 | 16.00552 | 108.39002 | 12756 ft | 359 kts | 173° |
| 2026-04-21 14:43 | 15.98029 | 108.39033 | 13317 ft | 361 kts | 173° |
| 2026-04-21 14:44 | 15.95517 | 108.39065 | 13859 ft | 364 kts | 173° |
| 2026-04-21 14:44 | 15.93098 | 108.39095 | 14363 ft | 367 kts | 174° |
| 2026-04-21 14:44 | 15.90409 | 108.38807 | 14879 ft | 378 kts | 187° |
| 2026-04-21 14:44 | 15.88397 | 108.38296 | 15295 ft | 381 kts | 189° |
| 2026-04-21 14:45 | 15.86663 | 108.37805 | 15638 ft | 383 kts | 190° |
| 2026-04-21 14:45 | 15.83240 | 108.36837 | 16285 ft | 386 kts | 190° |
| 2026-04-21 14:45 | 15.80637 | 108.36128 | 16762 ft | 389 kts | 189° |
| 2026-04-21 14:45 | 15.78081 | 108.35453 | 17218 ft | 391 kts | 189° |
| 2026-04-21 14:46 | 15.75424 | 108.34765 | 17677 ft | 393 kts | 189° |
| 2026-04-21 14:46 | 15.72790 | 108.34090 | 18116 ft | 395 kts | 189° |
| 2026-04-21 14:46 | 15.70122 | 108.33411 | 18549 ft | 397 kts | 189° |
| 2026-04-21 14:46 | 15.67410 | 108.32723 | 18976 ft | 400 kts | 189° |
| 2026-04-21 14:47 | 15.64736 | 108.32047 | 19384 ft | 402 kts | 189° |
| 2026-04-21 14:47 | 15.62002 | 108.31356 | 19787 ft | 404 kts | 189° |
| 2026-04-21 14:47 | 15.59282 | 108.30669 | 20180 ft | 406 kts | 189° |
| 2026-04-21 14:47 | 15.56536 | 108.29976 | 20568 ft | 408 kts | 189° |
| 2026-04-21 14:48 | 15.53757 | 108.29275 | 20949 ft | 411 kts | 189° |
| 2026-04-21 14:48 | 15.50979 | 108.28574 | 21321 ft | 413 kts | 189° |
| 2026-04-21 14:48 | 15.48217 | 108.27878 | 21680 ft | 415 kts | 190° |
| 2026-04-21 14:48 | 15.45401 | 108.27168 | 22035 ft | 417 kts | 190° |
| 2026-04-21 14:49 | 15.42572 | 108.26455 | 22383 ft | 419 kts | 190° |
| 2026-04-21 14:49 | 15.39741 | 108.25742 | 22721 ft | 420 kts | 190° |
| 2026-04-21 14:49 | 15.36894 | 108.25025 | 23052 ft | 422 kts | 190° |
| 2026-04-21 14:49 | 15.34022 | 108.24303 | 23378 ft | 424 kts | 190° |
| 2026-04-21 14:50 | 15.32123 | 108.23824 | 23587 ft | 425 kts | 190° |
| 2026-04-21 14:50 | 15.28292 | 108.22861 | 23997 ft | 428 kts | 190° |
| 2026-04-21 14:50 | 15.25400 | 108.22134 | 24300 ft | 430 kts | 190° |
| 2026-04-21 14:50 | 15.22507 | 108.21406 | 24595 ft | 431 kts | 190° |
| 2026-04-21 14:51 | 15.19584 | 108.20671 | 24884 ft | 433 kts | 191° |
| 2026-04-21 14:51 | 15.16679 | 108.19941 | 25164 ft | 435 kts | 191° |
| 2026-04-21 14:51 | 15.13716 | 108.19196 | 25443 ft | 436 kts | 191° |
| 2026-04-21 14:51 | 15.10777 | 108.18491 | 25709 ft | 437 kts | 188° |
| 2026-04-21 14:52 | 15.07784 | 108.17966 | 25972 ft | 437 kts | 184° |
| 2026-04-21 14:52 | 15.04767 | 108.17671 | 26228 ft | 437 kts | 180° |
| 2026-04-21 14:52 | 15.01734 | 108.17566 | 26489 ft | 438 kts | 178° |
| 2026-04-21 14:52 | 14.98683 | 108.17500 | 26795 ft | 437 kts | 178° |
| 2026-04-21 14:53 | 14.95666 | 108.17442 | 27123 ft | 436 kts | 178° |
| 2026-04-21 14:53 | 14.92645 | 108.17381 | 27438 ft | 436 kts | 178° |
| 2026-04-21 14:53 | 14.89578 | 108.17317 | 27744 ft | 435 kts | 178° |
| 2026-04-21 14:53 | 14.86612 | 108.17255 | 28043 ft | 434 kts | 178° |
| 2026-04-21 14:54 | 14.83596 | 108.17188 | 28295 ft | 435 kts | 178° |
| 2026-04-21 14:54 | 14.80568 | 108.17122 | 28503 ft | 437 kts | 178° |
| 2026-04-21 14:54 | 14.77535 | 108.17055 | 28713 ft | 438 kts | 178° |
| 2026-04-21 14:54 | 14.74479 | 108.16988 | 28918 ft | 440 kts | 178° |
| 2026-04-21 14:55 | 14.71401 | 108.16921 | 29134 ft | 441 kts | 178° |
| 2026-04-21 14:55 | 14.68329 | 108.16852 | 29414 ft | 440 kts | 178° |
| 2026-04-21 14:55 | 14.65292 | 108.16784 | 29709 ft | 439 kts | 178° |
| 2026-04-21 14:55 | 14.62233 | 108.16717 | 29985 ft | 439 kts | 178° |
| 2026-04-21 14:56 | 14.59196 | 108.16650 | 30246 ft | 439 kts | 178° |
| 2026-04-21 14:56 | 14.56167 | 108.16583 | 30505 ft | 439 kts | 178° |
| 2026-04-21 14:56 | 14.53099 | 108.16516 | 30759 ft | 439 kts | 178° |
| 2026-04-21 14:56 | 14.50054 | 108.16449 | 31020 ft | 438 kts | 178° |
| 2026-04-21 14:57 | 14.47010 | 108.16382 | 31273 ft | 438 kts | 178° |
| 2026-04-21 14:57 | 14.43963 | 108.16315 | 31528 ft | 438 kts | 178° |
| 2026-04-21 14:57 | 14.40955 | 108.16248 | 31769 ft | 438 kts | 178° |
| 2026-04-21 14:57 | 14.37908 | 108.16181 | 32007 ft | 438 kts | 178° |
| 2026-04-21 14:58 | 14.34845 | 108.16112 | 32243 ft | 438 kts | 178° |
| 2026-04-21 14:58 | 14.31814 | 108.16046 | 32476 ft | 438 kts | 178° |
| 2026-04-21 14:58 | 14.28786 | 108.15980 | 32720 ft | 437 kts | 178° |
| 2026-04-21 14:58 | 14.25729 | 108.15913 | 32962 ft | 437 kts | 177° |
| 2026-04-21 14:59 | 14.22695 | 108.15850 | 33180 ft | 437 kts | 177° |
| 2026-04-21 14:59 | 14.19692 | 108.15787 | 33377 ft | 437 kts | 178° |
| 2026-04-21 14:59 | 14.16648 | 108.15722 | 33589 ft | 437 kts | 178° |
| 2026-04-21 14:59 | 14.13596 | 108.15656 | 33797 ft | 437 kts | 177° |
| 2026-04-21 15:00 | 14.10578 | 108.15593 | 33879 ft | 440 kts | 177° |
| 2026-04-21 15:00 | 14.04425 | 108.15463 | 34191 ft | 441 kts | 177° |
| 2026-04-21 15:00 | 14.01384 | 108.15395 | 34764 ft | 432 kts | 177° |
| 2026-04-21 15:01 | 13.98439 | 108.15329 | 35335 ft | 422 kts | 177° |
| 2026-04-21 15:01 | 13.95545 | 108.15265 | 35750 ft | 416 kts | 177° |
| 2026-04-21 15:01 | 13.92648 | 108.15203 | 35864 ft | 418 kts | 177° |
| 2026-04-21 15:02 | 13.87003 | 108.15083 | 35870 ft | 426 kts | 177° |
| 2026-04-21 15:02 | 13.81015 | 108.14956 | 35880 ft | 435 kts | 177° |
| 2026-04-21 15:03 | 13.74937 | 108.14825 | 35882 ft | 442 kts | 177° |
| 2026-04-21 15:03 | 13.68800 | 108.14690 | 35889 ft | 442 kts | 177° |
| 2026-04-21 15:04 | 13.62656 | 108.14554 | 35893 ft | 442 kts | 177° |
| 2026-04-21 15:04 | 13.56515 | 108.14419 | 35894 ft | 442 kts | 177° |
| 2026-04-21 15:05 | 13.50349 | 108.14284 | 35895 ft | 450 kts | 178° |
| 2026-04-21 15:05 | 13.40887 | 108.14075 | 35893 ft | 454 kts | 178° |
| 2026-04-21 15:06 | 13.34630 | 108.13937 | 35893 ft | 453 kts | 178° |
| 2026-04-21 15:06 | 13.28285 | 108.13789 | 35894 ft | 453 kts | 178° |
| 2026-04-21 15:07 | 13.22003 | 108.13637 | 35894 ft | 453 kts | 178° |
| 2026-04-21 15:07 | 13.15724 | 108.13486 | 35893 ft | 454 kts | 178° |
| 2026-04-21 15:08 | 13.09419 | 108.13334 | 35894 ft | 453 kts | 178° |
| 2026-04-21 15:08 | 13.03196 | 108.13187 | 35894 ft | 448 kts | 178° |
| 2026-04-21 15:09 | 12.97017 | 108.13039 | 35896 ft | 444 kts | 179° |
| 2026-04-21 15:09 | 12.90897 | 108.12891 | 35894 ft | 442 kts | 179° |
| 2026-04-21 15:10 | 12.84789 | 108.12743 | 35894 ft | 442 kts | 179° |
| 2026-04-21 15:10 | 12.78667 | 108.12595 | 35894 ft | 442 kts | 179° |
| 2026-04-21 15:11 | 12.72553 | 108.12448 | 35894 ft | 442 kts | 179° |
| 2026-04-21 15:11 | 12.66445 | 108.12302 | 35893 ft | 442 kts | 179° |
| 2026-04-21 15:12 | 12.60298 | 108.12176 | 35893 ft | 442 kts | 178° |
| 2026-04-21 15:12 | 12.54172 | 108.12057 | 35894 ft | 442 kts | 178° |
| 2026-04-21 15:13 | 12.48025 | 108.11935 | 35892 ft | 442 kts | 178° |
| 2026-04-21 15:13 | 12.41921 | 108.11815 | 35894 ft | 442 kts | 178° |
| 2026-04-21 15:14 | 12.35804 | 108.11692 | 35894 ft | 442 kts | 178° |
| 2026-04-21 15:14 | 12.29649 | 108.11569 | 35893 ft | 442 kts | 178° |
| 2026-04-21 15:15 | 12.23533 | 108.11447 | 35890 ft | 437 kts | 178° |
| 2026-04-21 15:15 | 12.17528 | 108.11326 | 35742 ft | 434 kts | 178° |
| 2026-04-21 15:16 | 12.14522 | 108.11266 | 35428 ft | 434 kts | 178° |
| 2026-04-21 15:16 | 12.11493 | 108.11207 | 35022 ft | 434 kts | 178° |
| 2026-04-21 15:16 | 12.08525 | 108.11147 | 34896 ft | 434 kts | 178° |
| 2026-04-21 15:16 | 12.05522 | 108.11088 | 34896 ft | 434 kts | 178° |
| 2026-04-21 15:17 | 11.99460 | 108.10967 | 34894 ft | 435 kts | 178° |
| 2026-04-21 15:17 | 11.93489 | 108.10101 | 34894 ft | 441 kts | 193° |
| 2026-04-21 15:18 | 11.89221 | 108.08377 | 34894 ft | 446 kts | 204° |
| 2026-04-21 15:18 | 11.86206 | 108.06470 | 34892 ft | 447 kts | 213° |
| 2026-04-21 15:19 | 11.83290 | 108.04193 | 34735 ft | 439 kts | 215° |
| 2026-04-21 15:19 | 11.81052 | 108.02384 | 34299 ft | 436 kts | 215° |
| 2026-04-21 15:19 | 11.79025 | 108.00743 | 33695 ft | 438 kts | 215° |
| 2026-04-21 15:19 | 11.76662 | 107.98839 | 32951 ft | 440 kts | 215° |
| 2026-04-21 15:20 | 11.74257 | 107.96907 | 32177 ft | 443 kts | 215° |
| 2026-04-21 15:20 | 11.71797 | 107.94940 | 31423 ft | 455 kts | 215° |
| 2026-04-21 15:20 | 11.69322 | 107.92964 | 30659 ft | 462 kts | 215° |
| 2026-04-21 15:20 | 11.66817 | 107.90963 | 29888 ft | 456 kts | 215° |
| 2026-04-21 15:21 | 11.64334 | 107.88977 | 29105 ft | 447 kts | 215° |
| 2026-04-21 15:21 | 11.61921 | 107.87050 | 28329 ft | 439 kts | 216° |
| 2026-04-21 15:21 | 11.59541 | 107.85151 | 27551 ft | 432 kts | 216° |
| 2026-04-21 15:21 | 11.57201 | 107.83285 | 26774 ft | 425 kts | 216° |
| 2026-04-21 15:22 | 11.54921 | 107.81469 | 26006 ft | 419 kts | 216° |
| 2026-04-21 15:22 | 11.52644 | 107.79656 | 25228 ft | 414 kts | 216° |
| 2026-04-21 15:22 | 11.50393 | 107.77864 | 24449 ft | 408 kts | 216° |
| 2026-04-21 15:22 | 11.48177 | 107.76100 | 23671 ft | 403 kts | 216° |
| 2026-04-21 15:23 | 11.46078 | 107.74280 | 22953 ft | 399 kts | 223° |
| 2026-04-21 15:23 | 11.44110 | 107.72245 | 22396 ft | 397 kts | 225° |
| 2026-04-21 15:23 | 11.42222 | 107.70225 | 21847 ft | 394 kts | 225° |
| 2026-04-21 15:23 | 11.40331 | 107.68211 | 21294 ft | 391 kts | 225° |
| 2026-04-21 15:24 | 11.38470 | 107.66246 | 20747 ft | 388 kts | 225° |
| 2026-04-21 15:24 | 11.36607 | 107.64293 | 20197 ft | 384 kts | 225° |
| 2026-04-21 15:24 | 11.34713 | 107.62316 | 19625 ft | 383 kts | 225° |
| 2026-04-21 15:24 | 11.32865 | 107.60394 | 19076 ft | 381 kts | 225° |
| 2026-04-21 15:25 | 11.31042 | 107.58501 | 18531 ft | 378 kts | 225° |
| 2026-04-21 15:25 | 11.29213 | 107.56603 | 17962 ft | 376 kts | 225° |
| 2026-04-21 15:25 | 11.27367 | 107.54689 | 17379 ft | 374 kts | 225° |
| 2026-04-21 15:25 | 11.25560 | 107.52817 | 16806 ft | 372 kts | 225° |
| 2026-04-21 15:26 | 11.23745 | 107.50937 | 16227 ft | 371 kts | 225° |
| 2026-04-21 15:26 | 11.21966 | 107.49094 | 15657 ft | 369 kts | 225° |
| 2026-04-21 15:26 | 11.20163 | 107.47227 | 15078 ft | 367 kts | 226° |
| 2026-04-21 15:26 | 11.18386 | 107.45388 | 14592 ft | 363 kts | 226° |
| 2026-04-21 15:27 | 11.16633 | 107.43574 | 14117 ft | 358 kts | 226° |
| 2026-04-21 15:27 | 11.14908 | 107.41788 | 13644 ft | 354 kts | 226° |
| 2026-04-21 15:27 | 11.13168 | 107.39989 | 13161 ft | 351 kts | 226° |
| 2026-04-21 15:27 | 11.11481 | 107.38243 | 12688 ft | 347 kts | 226° |
| 2026-04-21 15:28 | 11.09796 | 107.36500 | 12211 ft | 344 kts | 226° |
| 2026-04-21 15:28 | 11.08129 | 107.34777 | 11735 ft | 341 kts | 226° |
| 2026-04-21 15:28 | 11.06475 | 107.33067 | 11259 ft | 338 kts | 226° |
| 2026-04-21 15:28 | 11.04829 | 107.31364 | 10781 ft | 335 kts | 226° |
| 2026-04-21 15:29 | 11.03197 | 107.29678 | 10304 ft | 332 kts | 225° |
| 2026-04-21 15:29 | 11.01596 | 107.28024 | 9831 ft | 329 kts | 226° |
| 2026-04-21 15:29 | 11.00275 | 107.26157 | 9455 ft | 322 kts | 248° |
| 2026-04-21 15:29 | 10.99649 | 107.23998 | 9108 ft | 317 kts | 255° |
| 2026-04-21 15:30 | 10.99135 | 107.21847 | 8710 ft | 313 kts | 255° |
| 2026-04-21 15:30 | 10.98616 | 107.19716 | 8310 ft | 309 kts | 255° |
| 2026-04-21 15:30 | 10.98080 | 107.17605 | 7931 ft | 304 kts | 254° |
| 2026-04-21 15:30 | 10.97543 | 107.15555 | 7582 ft | 299 kts | 254° |
| 2026-04-21 15:31 | 10.97004 | 107.13532 | 7231 ft | 294 kts | 253° |
| 2026-04-21 15:31 | 10.96466 | 107.11539 | 6871 ft | 290 kts | 253° |
| 2026-04-21 15:31 | 10.95928 | 107.09558 | 6444 ft | 288 kts | 253° |
| 2026-04-21 15:31 | 10.95397 | 107.07619 | 6029 ft | 282 kts | 253° |
| 2026-04-21 15:32 | 10.94886 | 107.05739 | 5588 ft | 269 kts | 253° |
| 2026-04-21 15:32 | 10.94394 | 107.03932 | 5102 ft | 266 kts | 252° |
| 2026-04-21 15:32 | 10.93894 | 107.02101 | 4693 ft | 265 kts | 252° |
| 2026-04-21 15:32 | 10.93402 | 107.00302 | 4326 ft | 264 kts | 252° |
| 2026-04-21 15:33 | 10.92911 | 106.98507 | 3969 ft | 262 kts | 252° |
| 2026-04-21 15:33 | 10.92425 | 106.96735 | 3635 ft | 259 kts | 253° |
| 2026-04-21 15:33 | 10.91951 | 106.94995 | 3474 ft | 248 kts | 253° |
| 2026-04-21 15:33 | 10.91601 | 106.93343 | 3445 ft | 235 kts | 263° |
| 2026-04-21 15:34 | 10.91510 | 106.91722 | 3405 ft | 221 kts | 264° |
| 2026-04-21 15:34 | 10.91326 | 106.90204 | 3311 ft | 216 kts | 256° |
| 2026-04-21 15:34 | 10.90938 | 106.88773 | 3257 ft | 199 kts | 250° |
| 2026-04-21 15:34 | 10.90495 | 106.87490 | 3067 ft | 188 kts | 248° |
| 2026-04-21 15:35 | 10.90045 | 106.86282 | 2900 ft | 175 kts | 246° |
| 2026-04-21 15:35 | 10.89623 | 106.85169 | 2710 ft | 165 kts | 246° |
| 2026-04-21 15:35 | 10.89210 | 106.84087 | 2406 ft | 162 kts | 246° |
| 2026-04-21 15:35 | 10.88811 | 106.83038 | 2182 ft | 154 kts | 246° |
| 2026-04-21 15:36 | 10.88430 | 106.82035 | 2037 ft | 152 kts | 246° |
| 2026-04-21 15:36 | 10.88044 | 106.81019 | 2026 ft | 155 kts | 246° |
| 2026-04-21 15:36 | 10.87650 | 106.79981 | 2016 ft | 156 kts | 246° |
| 2026-04-21 15:36 | 10.87263 | 106.78958 | 2016 ft | 151 kts | 247° |
| 2026-04-21 15:37 | 10.86893 | 106.77977 | 1995 ft | 148 kts | 246° |
| 2026-04-21 15:37 | 10.86521 | 106.76994 | 1994 ft | 147 kts | 246° |
| 2026-04-21 15:37 | 10.86153 | 106.76021 | 1985 ft | 147 kts | 246° |
| 2026-04-21 15:37 | 10.85787 | 106.75053 | 1828 ft | 147 kts | 246° |
| 2026-04-21 15:38 | 10.85419 | 106.74079 | 1631 ft | 146 kts | 246° |
| 2026-04-21 15:38 | 10.85054 | 106.73111 | 1424 ft | 145 kts | 246° |
| 2026-04-21 15:38 | 10.84693 | 106.72157 | 1244 ft | 145 kts | 246° |
| 2026-04-21 15:38 | 10.84332 | 106.71201 | 1043 ft | 144 kts | 246° |
| 2026-04-21 15:39 | 10.83980 | 106.70247 | 858 ft | 144 kts | 247° |
| 2026-04-21 15:39 | 10.83615 | 106.69291 | 684 ft | 144 kts | 246° |
| 2026-04-21 15:39 | 10.83254 | 106.68341 | 477 ft | 143 kts | 245° |
| 2026-04-21 15:39 | 10.82892 | 106.67389 | 252 ft | 143 kts | 246° |
| 2026-04-21 15:40 | 10.82541 | 106.66459 | 92 ft | 142 kts | 246° |
| 2026-04-21 15:40 | 10.82211 | 106.65589 | 30 ft | 98 kts | 246° |
| 2026-04-21 15:40 | 10.82066 | 106.65214 | 32 ft | 33 kts | 248° |
| 2026-04-21 15:40 | 10.81986 | 106.65003 | 31 ft | 30 kts | 249° |
| 2026-04-21 15:41 | 10.81914 | 106.64802 | 29 ft | 29 kts | 248° |
| 2026-04-21 15:41 | 10.81800 | 106.64638 | 28 ft | 27 kts | 220° |
| 2026-04-21 15:41 | 10.81659 | 106.64516 | 28 ft | 25 kts | 224° |
| 2026-04-21 15:41 | 10.81569 | 106.64360 | 25 ft | 25 kts | 248° |
| 2026-04-21 15:42 | 10.81478 | 106.64316 | 25 ft | 13 kts | 161° |
| 2026-04-21 15:42 | 10.81389 | 106.64349 | 25 ft | 13 kts | 159° |
| 2026-04-21 15:42 | 10.81301 | 106.64383 | 25 ft | 13 kts | 159° |
| 2026-04-21 15:42 | 10.81252 | 106.64450 | 25 ft | 13 kts | 81° |
| 2026-04-21 15:43 | 10.81283 | 106.64539 | 25 ft | 13 kts | 69° |
| 2026-04-21 15:43 | 10.81316 | 106.64628 | 25 ft | 13 kts | 69° |
| 2026-04-21 15:43 | 10.81349 | 106.64716 | 25 ft | 13 kts | 69° |
| 2026-04-21 15:43 | 10.81383 | 106.64806 | 25 ft | 13 kts | 68° |
| 2026-04-21 15:44 | 10.81419 | 106.64897 | 25 ft | 13 kts | 69° |
| 2026-04-21 15:44 | 10.81453 | 106.64988 | 25 ft | 13 kts | 69° |
| 2026-04-21 15:44 | 10.81486 | 106.65077 | 27 ft | 12 kts | 69° |
| 2026-04-21 15:44 | 10.81515 | 106.65157 | 28 ft | 11 kts | 70° |
| 2026-04-21 15:45 | 10.81544 | 106.65232 | 28 ft | 11 kts | 68° |
| 2026-04-21 15:45 | 10.81574 | 106.65308 | 28 ft | 11 kts | 69° |
| 2026-04-21 15:45 | 10.81604 | 106.65389 | 28 ft | 12 kts | 69° |
| 2026-04-21 15:45 | 10.81635 | 106.65471 | 28 ft | 12 kts | 69° |
| 2026-04-21 15:46 | 10.81666 | 106.65555 | 28 ft | 12 kts | 69° |
| 2026-04-21 15:46 | 10.81698 | 106.65637 | 28 ft | 12 kts | 69° |
| 2026-04-21 15:46 | 10.81724 | 106.65725 | 28 ft | 13 kts | 89° |
| 2026-04-21 15:46 | 10.81704 | 106.65799 | 28 ft | 10 kts | 114° |
| 2026-04-21 15:47 | 10.81680 | 106.65871 | 28 ft | 10 kts | 93° |
| 2026-04-21 15:47 | 10.81701 | 106.65946 | 28 ft | 11 kts | 69° |
| 2026-04-21 15:47 | 10.81724 | 106.66011 | 28 ft | 8 kts | 80° |
| 2026-04-21 15:47 | 10.81697 | 106.66057 | 28 ft | 8 kts | 163° |
| 2026-04-21 15:48 | 10.81636 | 106.66050 | 28 ft | 8 kts | 187° |
| 2026-04-21 15:48 | 10.81573 | 106.66044 | 28 ft | 9 kts | 185° |
| 2026-04-21 15:48 | 10.81507 | 106.66038 | 28 ft | 9 kts | 185° |
| 2026-04-21 15:48 | 10.81452 | 106.66032 | 29 ft | 5 kts | 185° |
| 2026-04-21 15:49 | 10.81419 | 106.66035 | 30 ft | 4 kts | 161° |
| 2026-04-21 15:49 | 10.81401 | 106.66053 | 30 ft | 3 kts | 109° |
| 2026-04-21 15:49 | 10.81398 | 106.66080 | 30 ft | 4 kts | 95° |
| 2026-04-21 15:49 | 10.81396 | 106.66099 | 30 ft | 1 kts | 95° |
| 2026-04-21 15:50 | 10.81395 | 106.66112 | 30 ft | 1 kts | 95° |
| 2026-04-21 15:50 | 10.81394 | 106.66119 | 30 ft | 0 kts | 95° |
| 2026-04-21 15:50 | 10.81394 | 106.66120 | 30 ft | 0 kts | 94° |
| 2026-04-21 15:50 | 10.81394 | 106.66121 | 30 ft | 0 kts | 94° |